createdAt,value
2023-01-21T00:00:16.602Z,17.30
2023-01-21T00:03:39.318Z,17.30
2023-01-21T00:07:01.566Z,17.30
2023-01-21T00:10:23.685Z,17.30
2023-01-21T00:13:45.899Z,17.30
2023-01-21T00:17:08.123Z,17.30
2023-01-21T00:20:30.293Z,17.30
2023-01-21T00:23:52.394Z,17.20
2023-01-21T00:27:14.560Z,17.30
2023-01-21T00:30:37.014Z,17.20
2023-01-21T00:33:59.197Z,17.20
2023-01-21T00:37:21.434Z,17.20
2023-01-21T00:40:43.568Z,17.20
2023-01-21T00:44:05.883Z,17.20
2023-01-21T00:47:28.045Z,17.20
2023-01-21T00:50:51.522Z,17.10
2023-01-21T00:54:13.753Z,17.20
2023-01-21T00:57:35.906Z,17.20
2023-01-21T01:01:02.690Z,17.20
2023-01-21T01:04:24.985Z,17.10
2023-01-21T01:07:47.666Z,17.10
2023-01-21T01:11:09.915Z,17.10
2023-01-21T01:14:32.173Z,17.10
2023-01-21T01:17:54.317Z,17.10
2023-01-21T01:21:17.622Z,17.10
2023-01-21T01:24:39.788Z,17.10
2023-01-21T01:28:02.045Z,17.10
2023-01-21T01:31:25.171Z,17.10
2023-01-21T01:34:47.409Z,17.10
2023-01-21T01:38:10.046Z,17.10
2023-01-21T01:41:32.977Z,17.10
2023-01-21T01:44:59.612Z,17.10
2023-01-21T01:48:27.426Z,17.10
2023-01-21T01:52:03.195Z,17.10
2023-01-21T01:55:25.600Z,17.20
2023-01-21T01:58:48.416Z,17.20
2023-01-21T02:02:13.965Z,17.20
2023-01-21T02:05:37.096Z,17.30
2023-01-21T02:08:59.189Z,17.30
2023-01-21T02:12:21.915Z,17.30
2023-01-21T02:15:44.028Z,17.30
2023-01-21T02:19:12.234Z,17.30
2023-01-21T02:22:41.790Z,17.30
2023-01-21T02:26:15.888Z,17.30
2023-01-21T02:29:41.106Z,17.30
2023-01-21T02:33:06.475Z,17.30
2023-01-21T02:36:34.414Z,17.30
2023-01-21T02:40:10.380Z,17.30
2023-01-21T02:43:37.136Z,17.30
2023-01-21T02:47:03.201Z,17.20
2023-01-21T02:50:27.488Z,17.30
2023-01-21T02:53:49.761Z,17.30
2023-01-21T02:57:14.169Z,17.30
2023-01-21T03:00:54.985Z,17.30
2023-01-21T03:04:26.427Z,17.40
2023-01-21T03:07:49.812Z,17.40
2023-01-21T03:11:16.472Z,17.40
2023-01-21T03:15:06.815Z,17.40
2023-01-21T03:18:39.120Z,17.40
2023-01-21T03:22:02.654Z,17.40
2023-01-21T03:25:25.956Z,17.40
2023-01-21T03:28:50.139Z,17.40
2023-01-21T03:32:14.082Z,17.40
2023-01-21T03:35:38.386Z,17.20
2023-01-21T03:39:02.525Z,17.20
2023-01-21T03:42:24.744Z,17.30
2023-01-21T03:45:50.440Z,17.30
2023-01-21T03:49:41.925Z,17.30
2023-01-21T03:53:05.062Z,17.30
2023-01-21T03:56:27.723Z,17.40
2023-01-21T03:59:49.908Z,17.40
2023-01-21T04:03:12.259Z,17.50
2023-01-21T04:06:34.641Z,17.50
2023-01-21T04:09:56.793Z,17.40
2023-01-21T04:13:18.925Z,17.40
2023-01-21T04:16:41.071Z,17.30
2023-01-21T04:20:03.314Z,17.30
2023-01-21T04:23:25.453Z,17.30
2023-01-21T04:26:47.603Z,17.30
2023-01-21T04:30:10.031Z,17.30
2023-01-21T04:33:32.184Z,17.30
2023-01-21T04:36:54.288Z,17.30
2023-01-21T04:40:16.759Z,17.40
2023-01-21T04:43:39.065Z,17.30
2023-01-21T04:47:01.189Z,17.30
2023-01-21T04:50:23.300Z,17.40
2023-01-21T04:53:45.475Z,17.30
2023-01-21T04:57:07.590Z,17.30
2023-01-21T05:00:29.767Z,17.30
2023-01-21T05:03:52.271Z,17.30
2023-01-21T05:07:14.890Z,17.30
2023-01-21T05:10:36.985Z,17.30
2023-01-21T05:13:59.178Z,17.30
2023-01-21T05:17:21.516Z,17.40
2023-01-21T05:20:43.687Z,17.50
2023-01-21T05:24:06.036Z,17.60
2023-01-21T05:27:28.235Z,17.70
2023-01-21T05:30:50.429Z,17.80
2023-01-21T05:34:12.606Z,17.80
2023-01-21T05:37:34.784Z,17.90
2023-01-21T05:40:57.734Z,18.00
2023-01-21T05:44:19.871Z,18.00
2023-01-21T05:47:42.322Z,18.00
2023-01-21T05:51:04.560Z,18.10
2023-01-21T05:54:26.740Z,18.10
2023-01-21T05:57:48.893Z,18.10
2023-01-21T06:01:11.036Z,18.20
2023-01-21T06:04:33.164Z,18.20
2023-01-21T06:07:55.405Z,18.20
2023-01-21T06:11:17.472Z,18.20
2023-01-21T06:14:39.609Z,18.20
2023-01-21T06:18:01.721Z,18.20
2023-01-21T06:21:23.869Z,18.20
2023-01-21T06:24:46.057Z,18.20
2023-01-21T06:28:08.920Z,18.30
2023-01-21T06:31:31.207Z,18.30
2023-01-21T06:34:53.425Z,18.30
2023-01-21T06:38:15.585Z,18.30
2023-01-21T06:41:37.802Z,18.30
2023-01-21T06:44:59.961Z,18.30
2023-01-21T06:48:22.159Z,18.30
2023-01-21T06:51:44.316Z,18.30
2023-01-21T06:55:06.611Z,18.30
2023-01-21T06:58:28.775Z,18.30
2023-01-21T07:01:51.008Z,18.30
2023-01-21T07:05:15.157Z,18.20
2023-01-21T07:08:37.590Z,18.20
2023-01-21T07:11:59.725Z,18.30
2023-01-21T07:15:21.983Z,18.30
2023-01-21T07:18:44.140Z,18.30
2023-01-21T07:22:06.387Z,18.20
2023-01-21T07:25:28.719Z,18.30
2023-01-21T07:28:50.800Z,18.30
2023-01-21T07:32:13.002Z,18.30
2023-01-21T07:35:35.553Z,18.30
2023-01-21T07:38:57.720Z,18.30
2023-01-21T07:42:19.840Z,18.30
2023-01-21T07:45:42.222Z,18.20
2023-01-21T07:49:04.404Z,18.20
2023-01-21T07:52:26.507Z,18.20
2023-01-21T07:55:48.659Z,18.20
2023-01-21T07:59:11.311Z,18.20
2023-01-21T08:02:33.718Z,18.20
2023-01-21T08:05:55.936Z,18.20
2023-01-21T08:09:18.076Z,18.10
2023-01-21T08:12:43.536Z,18.10
2023-01-21T08:16:06.188Z,18.10
2023-01-21T08:19:28.332Z,18.10
2023-01-21T08:22:50.824Z,18.20
2023-01-21T08:26:13.089Z,18.20
2023-01-21T08:29:35.881Z,18.30
2023-01-21T08:32:58.294Z,18.30
2023-01-21T08:36:20.449Z,18.40
2023-01-21T08:39:42.605Z,18.40
2023-01-21T08:43:06.007Z,18.40
2023-01-21T08:46:28.164Z,18.50
2023-01-21T08:49:50.266Z,18.50
2023-01-21T08:53:12.848Z,18.60
2023-01-21T08:56:35.102Z,18.70
2023-01-21T08:59:57.232Z,18.80
2023-01-21T09:03:19.846Z,18.80
2023-01-21T09:06:41.976Z,18.70
2023-01-21T09:10:04.879Z,18.70
2023-01-21T09:13:31.960Z,18.70
2023-01-21T09:16:55.865Z,18.70
2023-01-21T09:20:18.078Z,18.70
2023-01-21T09:23:40.420Z,18.60
2023-01-21T09:27:02.580Z,18.70
2023-01-21T09:30:24.833Z,18.60
2023-01-21T09:33:47.866Z,18.60
2023-01-21T09:37:10.009Z,18.50
2023-01-21T09:40:32.312Z,18.40
2023-01-21T09:43:59.559Z,18.40
2023-01-21T09:47:27.179Z,18.40
2023-01-21T09:50:50.306Z,18.50
2023-01-21T09:54:16.478Z,18.40
2023-01-21T09:58:07.804Z,18.30
2023-01-21T10:01:34.327Z,18.30
2023-01-21T10:05:16.843Z,18.30
2023-01-21T10:08:54.199Z,18.30
2023-01-21T10:12:18.862Z,18.20
2023-01-21T10:15:44.111Z,18.30
2023-01-21T10:19:08.032Z,18.30
2023-01-21T10:22:30.929Z,18.30
2023-01-21T10:25:53.133Z,18.30
2023-01-21T10:29:19.371Z,18.20
2023-01-21T10:32:41.811Z,18.20
2023-01-21T10:36:03.949Z,18.20
2023-01-21T10:39:26.101Z,18.20
2023-01-21T10:43:00.069Z,18.20
2023-01-21T10:46:28.424Z,18.20
2023-01-21T10:50:00.296Z,18.20
2023-01-21T10:53:27.361Z,18.20
2023-01-21T10:56:58.311Z,18.20
2023-01-21T11:00:22.462Z,18.20
2023-01-21T11:03:46.606Z,18.20
2023-01-21T11:07:11.939Z,18.30
2023-01-21T11:10:34.076Z,18.30
2023-01-21T11:13:56.272Z,18.30
2023-01-21T11:17:30.817Z,18.30
2023-01-21T11:20:55.330Z,18.30
2023-01-21T11:24:21.674Z,18.30
2023-01-21T11:27:43.849Z,18.30
2023-01-21T11:31:12.036Z,18.30
2023-01-21T11:34:34.333Z,18.20
2023-01-21T11:37:56.475Z,18.10
2023-01-21T11:41:21.094Z,18.00
2023-01-21T11:44:52.604Z,18.00
2023-01-21T11:48:19.928Z,18.00
2023-01-21T11:51:42.833Z,18.00
2023-01-21T11:55:16.874Z,18.10
2023-01-21T11:58:40.415Z,18.20
2023-01-21T12:02:22.930Z,18.20
2023-01-21T12:05:48.405Z,18.10
2023-01-21T12:09:17.029Z,18.00
2023-01-21T12:12:57.844Z,18.00
2023-01-21T12:16:35.275Z,18.00
2023-01-21T12:20:03.167Z,17.90
2023-01-21T12:23:44.104Z,17.90
2023-01-21T12:27:09.315Z,17.90
2023-01-21T12:30:31.423Z,17.90
2023-01-21T12:33:56.959Z,17.90
2023-01-21T12:37:21.805Z,17.90
2023-01-21T12:40:46.588Z,17.90
2023-01-21T12:44:23.474Z,18.00
2023-01-21T12:47:52.380Z,18.10
2023-01-21T12:51:17.568Z,18.20
2023-01-21T12:54:46.318Z,18.20
2023-01-21T12:58:11.501Z,18.30
2023-01-21T13:01:33.715Z,18.30
2023-01-21T13:04:58.623Z,18.30
2023-01-21T13:08:30.494Z,18.30
2023-01-21T13:11:55.874Z,18.30
2023-01-21T13:15:27.680Z,18.30
2023-01-21T13:18:53.732Z,18.30
2023-01-21T13:22:25.107Z,18.30
2023-01-21T13:25:57.271Z,18.30
2023-01-21T13:29:25.381Z,18.40
2023-01-21T13:33:00.305Z,18.40
2023-01-21T13:36:34.773Z,18.30
2023-01-21T13:40:15.702Z,18.30
2023-01-21T13:43:37.917Z,18.30
2023-01-21T13:47:03.109Z,18.30
2023-01-21T13:50:31.060Z,18.30
2023-01-21T13:54:11.498Z,18.20
2023-01-21T13:57:46.023Z,18.30
2023-01-21T14:01:15.279Z,18.30
2023-01-21T14:04:37.477Z,18.20
2023-01-21T14:08:02.346Z,18.30
2023-01-21T14:11:27.055Z,18.30
2023-01-21T14:14:55.348Z,18.30
2023-01-21T14:18:36.069Z,18.30
2023-01-21T14:22:36.679Z,18.30
2023-01-21T14:26:25.027Z,18.20
2023-01-21T14:30:16.472Z,18.20
2023-01-21T14:33:44.451Z,18.20
2023-01-21T14:37:19.037Z,18.20
2023-01-21T14:40:45.428Z,18.20
2023-01-21T14:44:27.498Z,18.20
2023-01-21T14:47:51.174Z,18.10
2023-01-21T14:51:21.413Z,18.10
2023-01-21T14:54:44.572Z,18.10
2023-01-21T14:58:14.933Z,18.10
2023-01-21T15:01:39.658Z,18.10
2023-01-21T15:05:15.698Z,18.20
2023-01-21T15:08:46.200Z,18.10
2023-01-21T15:12:14.701Z,18.10
2023-01-21T15:15:41.422Z,18.10
2023-01-21T15:19:09.773Z,18.10
2023-01-21T15:22:40.924Z,18.10
2023-01-21T15:26:09.130Z,18.10
2023-01-21T15:29:36.715Z,18.00
2023-01-21T15:33:01.722Z,18.10
2023-01-21T15:36:26.148Z,18.10
2023-01-21T15:39:52.218Z,18.00
2023-01-21T15:43:17.145Z,18.00
2023-01-21T15:46:57.884Z,18.00
2023-01-21T15:50:21.579Z,18.00
2023-01-21T15:54:02.297Z,18.00
2023-01-21T15:57:47.638Z,18.00
2023-01-21T16:01:29.433Z,18.00
2023-01-21T16:04:56.986Z,18.00
2023-01-21T16:08:30.372Z,18.00
2023-01-21T16:12:01.446Z,18.00
2023-01-21T16:15:29.775Z,18.00
2023-01-21T16:18:59.359Z,18.00
2023-01-21T16:22:23.401Z,17.90
2023-01-21T16:25:49.640Z,17.90
2023-01-21T16:29:13.626Z,17.90
2023-01-21T16:32:37.492Z,17.90
2023-01-21T16:36:02.880Z,17.80
2023-01-21T16:39:25.808Z,17.80
2023-01-21T16:42:47.943Z,17.80
2023-01-21T16:46:15.100Z,17.80
2023-01-21T16:49:37.208Z,17.80
2023-01-21T16:53:04.987Z,17.80
2023-01-21T16:56:28.546Z,17.70
2023-01-21T16:59:52.895Z,17.70
2023-01-21T17:03:16.301Z,17.70
2023-01-21T17:06:39.376Z,17.70
2023-01-21T17:10:04.498Z,17.70
2023-01-21T17:13:27.810Z,17.80
2023-01-21T17:16:50.151Z,17.80
2023-01-21T17:20:32.628Z,17.90
2023-01-21T17:23:56.466Z,18.00
2023-01-21T17:27:20.344Z,18.00
2023-01-21T17:30:42.697Z,18.10
2023-01-21T17:34:11.009Z,18.20
2023-01-21T17:37:43.818Z,18.20
2023-01-21T17:41:08.808Z,18.20
2023-01-21T17:44:30.929Z,18.30
2023-01-21T17:48:08.265Z,18.30
2023-01-21T17:51:33.815Z,18.40
2023-01-21T17:55:11.027Z,18.40
2023-01-21T17:58:46.750Z,18.40
2023-01-21T18:02:12.081Z,18.40
2023-01-21T18:05:34.554Z,18.60
2023-01-21T18:08:57.282Z,18.60
2023-01-21T18:12:19.598Z,18.50
2023-01-21T18:15:44.015Z,18.50
2023-01-21T18:19:06.172Z,18.50
2023-01-21T18:22:29.620Z,18.60
2023-01-21T18:25:54.787Z,18.70
2023-01-21T18:29:18.246Z,18.80
2023-01-21T18:32:42.664Z,18.70
2023-01-21T18:36:05.381Z,18.70
2023-01-21T18:39:27.512Z,18.70
2023-01-21T18:42:50.999Z,18.70
2023-01-21T18:46:14.046Z,18.70
2023-01-21T18:49:35.765Z,18.60
2023-01-21T18:52:37.628Z,18.30
2023-01-21T18:55:40.091Z,18.20
2023-01-21T18:58:42.233Z,18.20
2023-01-21T19:02:03.999Z,18.10
2023-01-21T19:05:27.864Z,18.10
2023-01-21T19:08:50.019Z,18.10
2023-01-21T19:12:16.942Z,18.10
2023-01-21T19:15:39.103Z,18.00
2023-01-21T19:19:03.220Z,18.10
2023-01-21T19:22:27.261Z,18.00
2023-01-21T19:25:51.401Z,18.00
2023-01-21T19:29:15.214Z,18.00
2023-01-21T19:32:37.359Z,18.10
2023-01-21T19:36:02.099Z,18.20
2023-01-21T19:39:25.335Z,18.30
2023-01-21T19:42:47.693Z,18.30
2023-01-21T19:46:10.432Z,18.40
2023-01-21T19:49:32.617Z,18.50
2023-01-21T19:52:55.168Z,18.50
2023-01-21T19:56:21.274Z,18.50
2023-01-21T19:59:44.164Z,18.60
2023-01-21T20:03:06.458Z,18.60
2023-01-21T20:06:32.017Z,18.70
2023-01-21T20:09:54.158Z,18.70
2023-01-21T20:13:16.711Z,18.60
2023-01-21T20:16:46.936Z,18.70
2023-01-21T20:20:28.701Z,18.70
2023-01-21T20:23:50.934Z,18.70
2023-01-21T20:27:14.281Z,18.70
2023-01-21T20:30:36.574Z,18.70
2023-01-21T20:33:58.771Z,18.70
2023-01-21T20:37:20.972Z,18.60
2023-01-21T20:40:43.144Z,18.60
2023-01-21T20:44:05.491Z,18.60
2023-01-21T20:47:37.953Z,18.50
2023-01-21T20:51:01.303Z,18.60
2023-01-21T20:54:24.836Z,18.60
2023-01-21T20:57:47.378Z,18.60
2023-01-21T21:01:09.585Z,18.60
2023-01-21T21:04:31.782Z,18.60
2023-01-21T21:07:54.460Z,18.60
2023-01-21T21:11:17.358Z,18.60
2023-01-21T21:14:39.521Z,18.60
2023-01-21T21:18:03.186Z,18.60
2023-01-21T21:21:25.349Z,18.60
2023-01-21T21:24:47.507Z,18.60
2023-01-21T21:28:10.542Z,18.50
2023-01-21T21:31:32.988Z,18.50
2023-01-21T21:34:55.131Z,18.50
2023-01-21T21:38:18.349Z,18.40
2023-01-21T21:41:59.072Z,18.30
2023-01-21T21:45:21.276Z,18.30
2023-01-21T21:48:44.248Z,18.20
2023-01-21T21:52:06.457Z,18.10
2023-01-21T21:55:28.656Z,18.10
2023-01-21T21:58:51.259Z,18.10
2023-01-21T22:02:13.516Z,18.10
2023-01-21T22:05:37.087Z,18.20
2023-01-21T22:08:59.632Z,18.20
2023-01-21T22:12:21.768Z,18.10
2023-01-21T22:15:44.596Z,18.10
2023-01-21T22:19:06.729Z,18.10
2023-01-21T22:22:29.321Z,18.10
2023-01-21T22:25:51.504Z,18.10
2023-01-21T22:29:13.611Z,18.10
2023-01-21T22:32:35.768Z,18.00
2023-01-21T22:35:57.953Z,18.00
2023-01-21T22:39:20.100Z,18.00
2023-01-21T22:42:42.222Z,18.00
2023-01-21T22:46:04.496Z,17.90
2023-01-21T22:49:26.652Z,17.90
2023-01-21T22:52:48.776Z,17.80
2023-01-21T22:56:11.828Z,17.80
2023-01-21T22:59:34.037Z,17.70
2023-01-21T23:02:56.146Z,17.80
2023-01-21T23:06:18.780Z,17.80
2023-01-21T23:09:40.927Z,17.80
2023-01-21T23:13:03.056Z,17.80
2023-01-21T23:16:25.191Z,17.70
2023-01-21T23:19:47.346Z,17.80
2023-01-21T23:23:10.132Z,17.70
2023-01-21T23:26:32.565Z,17.80
2023-01-21T23:29:54.780Z,17.70
2023-01-21T23:33:16.945Z,17.70
2023-01-21T23:36:39.044Z,17.70
2023-01-21T23:40:01.224Z,17.70
2023-01-21T23:43:26.715Z,17.70
2023-01-21T23:46:48.828Z,17.70
2023-01-21T23:50:12.841Z,17.70
2023-01-21T23:53:35.060Z,17.70
2023-01-21T23:56:57.150Z,17.70
